KLRO

Details ICAO KLRO
Name MT PLEASANT RGNL
Region United States
Timezone America/New_York (UTC-4.0)
Plans Departing 21
Arriving 18
Stats Elevation 12 ft / 4 m (AMSL)
Location 32.898000° -79.782900°
Runways 1
Magnetic Variation 8.143° W
Sunrise 2019-05-20 10:18:23 UTC / 2019-05-20 06:18:23 Local
Sunset 2019-05-21 00:15:46 UTC / 2019-05-20 20:15:46 Local
Advertisement - Login to hide

Runways

ID Width Length Bearing (true/mag) Surface Threshold Overrun Markings Lighting
17 75 ft / 23 m 3,806 ft / 1,160 m 167.39° / 175.54° ASPHALT 0 ft / 0 m 0 ft / 0 m APP EDGE THRESHOLD
35 75 ft / 23 m 3,806 ft / 1,160 m 347.39° / 355.54° ASPHALT 0 ft / 0 m 0 ft / 0 m APP EDGE THRESHOLD

Map

Weather


0- 5 10 15 20 25 30 35+ Temperature / °C

Clouds and Precipitation
Forecast for 2019-05-20 18:00 UTC. Updated 2 hours ago

Ground ~20,000 ft ~40,000 ft Winds

METAR

KLRO 201655Z AUTO 18011G17KT 7SM FEW021 SCT027 SCT034 28/23 A3003 RMK AO2

TAF

Not found

Frequencies

Unicom 122.70 MHz CTAF/UNICOM
Approach 135.80 MHz CHARLESTON APP/DEP
Warning: Do not use this data for real-world aviation or navigation. No guarantee of current accuracy is given.